createdAt,value
2022-11-04T00:00:22.002Z,99678.97
2022-11-04T00:00:47.062Z,99680.50
2022-11-04T00:01:09.180Z,99682.91
2022-11-04T00:01:32.386Z,99681.09
2022-11-04T00:01:54.639Z,99685.59
2022-11-04T00:02:16.326Z,99687.31
2022-11-04T00:02:38.042Z,99674.69
2022-11-04T00:03:00.687Z,99683.56
2022-11-04T00:03:22.264Z,99679.94
2022-11-04T00:03:43.882Z,99683.66
2022-11-04T00:04:05.920Z,99688.25
2022-11-04T00:04:29.083Z,99683.94
2022-11-04T00:04:51.645Z,99682.25
2022-11-04T00:05:13.217Z,99688.25
2022-11-04T00:05:34.782Z,99684.72
2022-11-04T00:05:56.343Z,99688.34
2022-11-04T00:06:19.032Z,99703.72
2022-11-04T00:06:40.994Z,99686.75
2022-11-04T00:07:22.697Z,99680.84
2022-11-04T00:08:02.254Z,99698.09
2022-11-04T00:08:23.802Z,99704.19
2022-11-04T00:08:49.440Z,99695.41
2022-11-04T00:09:13.266Z,99697.31
2022-11-04T00:09:35.819Z,99695.63
2022-11-04T00:09:57.389Z,99690.28
2022-11-04T00:10:40.397Z,99698.16
2022-11-04T00:11:21.155Z,99691.97
2022-11-04T00:12:01.518Z,99699.03
2022-11-04T00:12:26.177Z,99698.84
2022-11-04T00:12:47.757Z,99696.28
2022-11-04T00:13:09.732Z,99707.09
2022-11-04T00:13:31.553Z,99705.56
2022-11-04T00:13:54.115Z,99700.31
2022-11-04T00:14:16.520Z,99706.31
2022-11-04T00:14:39.276Z,99708.03
2022-11-04T00:15:20.868Z,99707.84
2022-11-04T00:15:57.329Z,99705.84
2022-11-04T00:16:37.332Z,99710.22
2022-11-04T00:17:18.248Z,99710.91
2022-11-04T00:17:39.804Z,99711.66
2022-11-04T00:18:01.345Z,99710.69
2022-11-04T00:18:23.044Z,99710.91
2022-11-04T00:18:44.628Z,99711.78
2022-11-04T00:19:06.168Z,99717.97
2022-11-04T00:19:28.738Z,99714.31
2022-11-04T00:20:10.346Z,99713.09
2022-11-04T00:20:50.225Z,99716.25
2022-11-04T00:21:30.282Z,99715.84
2022-11-04T00:22:11.125Z,99705.38
2022-11-04T00:22:51.344Z,99713.09
2022-11-04T00:23:31.486Z,99713.88
2022-11-04T00:24:11.724Z,99718.94
2022-11-04T00:24:52.119Z,99712.53
2022-11-04T00:25:32.435Z,99717.09
2022-11-04T00:26:14.004Z,99710.72
2022-11-04T00:26:54.241Z,99720.25
2022-11-04T00:27:36.838Z,99720.31
2022-11-04T00:28:22.050Z,99715.28
2022-11-04T00:28:44.768Z,99723.28
2022-11-04T00:29:06.362Z,99727.03
2022-11-04T00:29:27.907Z,99725.97
2022-11-04T00:29:49.458Z,99730.34
2022-11-04T00:30:12.243Z,99727.59
2022-11-04T00:30:33.852Z,99717.59
2022-11-04T00:30:56.936Z,99714.91
2022-11-04T00:31:36.174Z,99711.38
2022-11-04T00:32:24.585Z,99722.53
2022-11-04T00:33:04.671Z,99720.44
2022-11-04T00:33:26.964Z,99731.69
2022-11-04T00:33:49.691Z,99732.34
2022-11-04T00:34:12.246Z,99718.16
2022-11-04T00:34:33.787Z,99727.38
2022-11-04T00:34:55.974Z,99729.03
2022-11-04T00:35:17.648Z,99734.00
2022-11-04T00:35:39.216Z,99735.63
2022-11-04T00:36:01.807Z,99736.84
2022-11-04T00:36:25.341Z,99731.44
2022-11-04T00:36:46.911Z,99734.78
2022-11-04T00:37:08.449Z,99734.97
2022-11-04T00:37:30.077Z,99735.31
2022-11-04T00:37:52.653Z,99735.09
2022-11-04T00:38:14.235Z,99739.50
2022-11-04T00:38:35.953Z,99739.50
2022-11-04T00:38:58.043Z,99736.19
2022-11-04T00:39:20.804Z,99740.56
2022-11-04T00:39:42.357Z,99733.69
2022-11-04T00:40:04.802Z,99740.38
2022-11-04T00:40:27.367Z,99734.81
2022-11-04T00:40:48.923Z,99729.88
2022-11-04T00:41:25.811Z,99733.41
2022-11-04T00:41:48.322Z,99734.16
2022-11-04T00:42:09.959Z,99740.28
2022-11-04T00:42:31.673Z,99742.09
2022-11-04T00:42:53.265Z,99742.75
2022-11-04T00:43:14.850Z,99744.06
2022-11-04T00:43:37.394Z,99744.66
2022-11-04T00:44:01.513Z,99746.28
2022-11-04T00:44:23.050Z,99737.50
2022-11-04T00:44:44.697Z,99739.03
2022-11-04T00:45:07.718Z,99718.34
2022-11-04T00:45:30.228Z,99740.94
2022-11-04T00:45:51.791Z,99740.75
2022-11-04T00:46:13.366Z,99729.31
2022-11-04T00:46:35.032Z,99734.25
2022-11-04T00:46:56.653Z,99728.81
2022-11-04T00:47:19.190Z,99734.00
2022-11-04T00:47:40.738Z,99736.66
2022-11-04T00:48:02.327Z,99732.19
2022-11-04T00:48:23.883Z,99729.78
2022-11-04T00:48:45.493Z,99724.44
2022-11-04T00:49:08.239Z,99726.34
2022-11-04T00:49:29.848Z,99732.66
2022-11-04T00:49:51.577Z,99727.88
2022-11-04T00:50:13.218Z,99733.03
2022-11-04T00:50:35.827Z,99736.66
2022-11-04T00:50:57.561Z,99733.91
2022-11-04T00:51:19.615Z,99737.22
2022-11-04T00:51:41.427Z,99739.72
2022-11-04T00:52:04.047Z,99734.38
2022-11-04T00:52:25.655Z,99749.81
2022-11-04T00:52:47.239Z,99737.22
2022-11-04T00:53:09.091Z,99740.75
2022-11-04T00:53:31.910Z,99747.59
2022-11-04T00:53:53.941Z,99744.75
2022-11-04T00:54:15.651Z,99743.03
2022-11-04T00:54:37.248Z,99743.69
2022-11-04T00:54:58.848Z,99750.00
2022-11-04T00:55:21.417Z,99743.69
2022-11-04T00:55:43.343Z,99743.41
2022-11-04T00:56:05.514Z,99744.47
2022-11-04T00:56:28.517Z,99743.50
2022-11-04T00:56:50.162Z,99752.28
2022-11-04T00:57:13.409Z,99752.00
2022-11-04T00:57:35.520Z,99752.28
2022-11-04T00:57:58.511Z,99753.06
2022-11-04T00:58:21.051Z,99738.38
2022-11-04T00:58:42.749Z,99760.97
2022-11-04T00:59:04.618Z,99743.22
2022-11-04T00:59:26.291Z,99754.66
2022-11-04T00:59:48.779Z,99746.09
2022-11-04T01:00:11.721Z,99752.78
2022-11-04T01:00:33.297Z,99758.78
2022-11-04T01:00:54.941Z,99758.97
2022-11-04T01:01:18.648Z,99748.47
2022-11-04T01:01:40.637Z,99757.91
2022-11-04T01:02:02.601Z,99751.72
2022-11-04T01:02:24.418Z,99740.84
2022-11-04T01:02:47.209Z,99760.38
2022-11-04T01:03:09.192Z,99750.47
2022-11-04T01:03:30.974Z,99749.25
2022-11-04T01:03:54.048Z,99759.25
2022-11-04T01:04:16.583Z,99764.41
2022-11-04T01:04:38.188Z,99763.38
2022-11-04T01:04:59.754Z,99763.13
2022-11-04T01:05:21.368Z,99757.66
2022-11-04T01:05:43.911Z,99760.22
2022-11-04T01:06:05.944Z,99765.50
2022-11-04T01:06:28.025Z,99766.22
2022-11-04T01:06:49.582Z,99766.34
2022-11-04T01:07:11.194Z,99764.50
2022-11-04T01:07:33.734Z,99772.44
2022-11-04T01:07:56.821Z,99772.44
2022-11-04T01:08:18.422Z,99779.00
2022-11-04T01:08:40.232Z,99775.41
2022-11-04T01:09:05.731Z,99768.16
2022-11-04T01:09:28.373Z,99773.50
2022-11-04T01:09:49.982Z,99781.28
2022-11-04T01:10:11.667Z,99769.25
2022-11-04T01:10:35.117Z,99773.66
2022-11-04T01:10:57.670Z,99774.44
2022-11-04T01:11:19.229Z,99762.38
2022-11-04T01:11:42.232Z,99776.03
2022-11-04T01:12:04.310Z,99772.41
2022-11-04T01:12:26.978Z,99770.22
2022-11-04T01:12:48.565Z,99777.19
2022-11-04T01:13:10.762Z,99775.28
2022-11-04T01:13:33.378Z,99775.28
2022-11-04T01:13:55.667Z,99779.56
2022-11-04T01:14:18.498Z,99773.22
2022-11-04T01:14:40.058Z,99745.78
2022-11-04T01:15:01.715Z,99778.69
2022-11-04T01:15:23.386Z,99777.75
2022-11-04T01:15:45.919Z,99779.38
2022-11-04T01:16:10.953Z,99779.22
2022-11-04T01:16:33.240Z,99783.69
2022-11-04T01:16:54.842Z,99783.50
2022-11-04T01:17:17.773Z,99794.38
2022-11-04T01:17:39.370Z,99782.63
2022-11-04T01:18:00.945Z,99787.16
2022-11-04T01:18:22.471Z,99789.69
2022-11-04T01:18:44.130Z,99786.09
2022-11-04T01:19:07.097Z,99787.72
2022-11-04T01:19:28.654Z,99794.00
2022-11-04T01:19:50.237Z,99792.09
2022-11-04T01:20:13.806Z,99789.31
2022-11-04T01:20:36.421Z,99791.91
2022-11-04T01:21:01.166Z,99786.56
2022-11-04T01:21:22.711Z,99787.31
2022-11-04T01:21:44.414Z,99788.94
2022-11-04T01:22:16.972Z,99788.09
2022-11-04T01:22:38.572Z,99793.44
2022-11-04T01:23:00.512Z,99802.00
2022-11-04T01:23:22.088Z,99793.44
2022-11-04T01:23:44.803Z,99786.09
2022-11-04T01:24:07.641Z,99799.34
2022-11-04T01:24:29.422Z,99805.56
2022-11-04T01:24:51.074Z,99803.63
2022-11-04T01:25:12.686Z,99800.88
2022-11-04T01:25:35.293Z,99799.06
2022-11-04T01:25:57.043Z,99807.06
2022-11-04T01:26:21.809Z,99809.19
2022-11-04T01:26:44.951Z,99808.09
2022-11-04T01:27:07.495Z,99804.97
2022-11-04T01:27:29.084Z,99794.44
2022-11-04T01:27:50.746Z,99802.66
2022-11-04T01:28:12.478Z,99800.75
2022-11-04T01:28:34.129Z,99799.19
2022-11-04T01:28:58.005Z,99802.94
2022-11-04T01:29:19.581Z,99806.34
2022-11-04T01:29:41.106Z,99804.41
2022-11-04T01:30:02.695Z,99803.34
2022-11-04T01:30:25.665Z,99804.97
2022-11-04T01:30:47.334Z,99809.47
2022-11-04T01:31:10.124Z,99803.22
2022-11-04T01:31:31.687Z,99804.84
2022-11-04T01:31:54.248Z,99804.66
2022-11-04T01:32:15.802Z,99802.84
2022-11-04T01:32:37.326Z,99806.28
2022-11-04T01:32:58.962Z,99795.88
2022-11-04T01:33:20.603Z,99804.53
2022-11-04T01:33:43.471Z,99802.72
2022-11-04T01:34:05.046Z,99808.94
2022-11-04T01:34:26.645Z,99804.84
2022-11-04T01:34:49.156Z,99803.22
2022-11-04T01:35:10.730Z,99807.69
2022-11-04T01:35:32.519Z,99802.53
2022-11-04T01:35:54.124Z,99806.84
2022-11-04T01:36:15.817Z,99808.72
2022-11-04T01:36:38.331Z,99802.44
2022-11-04T01:36:59.871Z,99812.84
2022-11-04T01:37:21.422Z,99816.38
2022-11-04T01:37:43.002Z,99810.66
2022-11-04T01:38:05.945Z,99819.53
2022-11-04T01:38:28.726Z,99786.63
2022-11-04T01:38:50.848Z,99816.16
2022-11-04T01:39:12.942Z,99821.03
2022-11-04T01:39:35.461Z,99808.34
2022-11-04T01:39:57.068Z,99818.75
2022-11-04T01:40:19.124Z,99820.47
2022-11-04T01:40:41.328Z,99810.53
2022-11-04T01:41:04.477Z,99818.44
2022-11-04T01:41:30.626Z,99811.75
2022-11-04T01:41:53.606Z,99821.00
2022-11-04T01:42:16.608Z,99820.16
2022-11-04T01:42:38.209Z,99815.94
2022-11-04T01:42:59.791Z,99819.38
2022-11-04T01:43:22.653Z,99818.22
2022-11-04T01:43:49.393Z,99828.16
2022-11-04T01:44:48.813Z,99821.81
2022-11-04T01:45:15.580Z,99817.06
2022-11-04T01:45:37.309Z,99819.56
2022-11-04T01:46:00.627Z,99825.66
2022-11-04T01:46:34.087Z,99820.91
2022-11-04T01:46:56.650Z,99819.88
2022-11-04T01:47:21.658Z,99819.75
2022-11-04T01:47:47.505Z,99818.88
2022-11-04T01:48:14.680Z,99810.78
2022-11-04T01:48:37.249Z,99823.69
2022-11-04T01:49:06.324Z,99815.84
2022-11-04T01:49:33.138Z,99814.13
2022-11-04T01:49:59.055Z,99811.16
2022-11-04T01:50:23.837Z,99809.28
2022-11-04T01:50:45.467Z,99821.41
2022-11-04T01:51:07.630Z,99815.97
2022-11-04T01:51:34.188Z,99817.59
2022-11-04T01:52:01.059Z,99818.25
2022-11-04T01:52:28.491Z,99811.22
2022-11-04T01:52:54.218Z,99816.34
2022-11-04T01:53:18.934Z,99820.63
2022-11-04T01:53:43.849Z,99821.69
2022-11-04T01:54:06.584Z,99817.41
2022-11-04T01:54:29.931Z,99820.19
2022-11-04T01:54:54.109Z,99827.91
2022-11-04T01:55:20.447Z,99825.03
2022-11-04T01:55:45.387Z,99825.72
2022-11-04T01:56:12.831Z,99830.09
2022-11-04T01:56:34.931Z,99819.25
2022-11-04T01:57:00.950Z,99822.66
2022-11-04T01:57:28.390Z,99825.91
2022-11-04T01:57:53.828Z,99828.09
2022-11-04T01:58:18.397Z,99823.13
2022-11-04T01:58:43.326Z,99824.72
2022-11-04T01:59:10.561Z,99831.78
2022-11-04T01:59:37.842Z,99830.00
2022-11-04T02:00:02.896Z,99827.97
2022-11-04T02:00:33.304Z,99829.31
2022-11-04T02:00:55.012Z,99828.25
2022-11-04T02:01:17.765Z,99823.59
2022-11-04T02:01:39.626Z,99825.16
2022-11-04T02:02:01.901Z,99831.44
2022-11-04T02:02:23.725Z,99827.72
2022-11-04T02:03:00.025Z,99825.81
2022-11-04T02:03:26.769Z,99827.41
2022-11-04T02:03:53.053Z,99813.41
2022-11-04T02:04:27.570Z,99822.19
2022-11-04T02:04:50.095Z,99826.56
2022-11-04T02:05:11.739Z,99827.41
2022-11-04T02:05:33.506Z,99821.22
2022-11-04T02:05:55.520Z,99825.63
2022-11-04T02:06:20.813Z,99826.47
2022-11-04T02:06:42.388Z,99823.44
2022-11-04T02:07:07.089Z,99828.75
2022-11-04T02:07:28.903Z,99821.78
2022-11-04T02:07:55.255Z,99827.91
2022-11-04T02:08:18.130Z,99820.84
2022-11-04T02:08:40.995Z,99821.69
2022-11-04T02:09:02.597Z,99827.91
2022-11-04T02:09:27.711Z,99821.91
2022-11-04T02:09:49.635Z,99821.69
2022-11-04T02:10:12.487Z,99826.84
2022-11-04T02:10:35.042Z,99818.16
2022-11-04T02:10:59.846Z,99813.59
2022-11-04T02:11:48.259Z,99816.44
2022-11-04T02:12:29.543Z,99819.53
2022-11-04T02:12:51.525Z,99828.41
2022-11-04T02:13:13.102Z,99816.34
2022-11-04T02:13:36.632Z,99825.50
2022-11-04T02:13:58.618Z,99826.38
2022-11-04T02:14:20.221Z,99816.72
2022-11-04T02:14:43.907Z,99815.78
2022-11-04T02:15:06.212Z,99819.97
2022-11-04T02:15:37.401Z,99816.66
2022-11-04T02:16:09.690Z,99802.91
2022-11-04T02:16:39.902Z,99815.00
2022-11-04T02:17:11.440Z,99812.16
2022-11-04T02:17:59.695Z,99813.00
2022-11-04T02:18:53.225Z,99818.22
2022-11-04T02:19:37.376Z,99804.72
2022-11-04T02:20:07.604Z,99818.53
2022-11-04T02:20:44.155Z,99813.97
2022-11-04T02:21:26.116Z,99814.84
2022-11-04T02:22:20.379Z,99810.91
2022-11-04T02:23:06.371Z,99808.34
2022-11-04T02:23:58.971Z,99801.56
2022-11-04T02:24:42.429Z,99798.63
2022-11-04T02:25:15.493Z,99801.78
2022-11-04T02:26:17.065Z,99802.44
2022-11-04T02:27:22.509Z,99799.69
2022-11-04T02:28:04.867Z,99794.81
2022-11-04T02:28:46.136Z,99809.28
2022-11-04T02:29:25.986Z,99803.75
2022-11-04T02:30:08.806Z,99807.19
2022-11-04T02:30:36.263Z,99807.97
2022-11-04T02:31:05.053Z,99809.66
2022-11-04T02:31:34.410Z,99803.22
2022-11-04T02:32:06.339Z,99803.88
2022-11-04T02:32:40.563Z,99801.00
2022-11-04T02:33:19.704Z,99795.38
2022-11-04T02:33:49.437Z,99803.22
2022-11-04T02:34:19.551Z,99792.72
2022-11-04T02:34:50.483Z,99805.78
2022-11-04T02:35:21.683Z,99779.94
2022-11-04T02:35:51.436Z,99803.88
2022-11-04T02:36:22.583Z,99799.78
2022-11-04T02:36:52.011Z,99805.69
2022-11-04T02:37:22.423Z,99797.59
2022-11-04T02:37:55.077Z,99801.75
2022-11-04T02:38:26.976Z,99803.44
2022-11-04T02:38:52.408Z,99803.34
2022-11-04T02:39:22.986Z,99807.13
2022-11-04T02:39:53.921Z,99808.78
2022-11-04T02:40:24.728Z,99806.88
2022-11-04T02:40:57.083Z,99808.59
2022-11-04T02:41:31.139Z,99816.78
2022-11-04T02:41:58.184Z,99812.31
2022-11-04T02:42:27.159Z,99804.22
2022-11-04T02:42:54.946Z,99801.53
2022-11-04T02:43:26.410Z,99808.59
2022-11-04T02:44:08.127Z,99806.78
2022-11-04T02:44:34.731Z,99805.63
2022-11-04T02:45:10.834Z,99804.00
2022-11-04T02:45:38.450Z,99804.78
2022-11-04T02:46:05.277Z,99818.13
2022-11-04T02:46:34.618Z,99806.66
2022-11-04T02:47:00.361Z,99811.06
2022-11-04T02:47:26.475Z,99807.66
2022-11-04T02:47:55.331Z,99803.19
2022-11-04T02:48:25.543Z,99807.53
2022-11-04T02:48:53.281Z,99806.88
2022-11-04T02:49:24.531Z,99799.81
2022-11-04T02:49:52.030Z,99806.78
2022-11-04T02:50:21.996Z,99805.84
2022-11-04T02:50:52.267Z,99814.69
2022-11-04T02:51:19.797Z,99805.28
2022-11-04T02:51:47.026Z,99814.69
2022-11-04T02:52:11.278Z,99811.94
2022-11-04T02:52:41.617Z,99804.78
2022-11-04T02:53:08.034Z,99802.47
2022-11-04T02:53:33.874Z,99814.69
2022-11-04T02:54:04.766Z,99793.19
2022-11-04T02:54:33.170Z,99812.13
2022-11-04T02:55:01.304Z,99807.75
2022-11-04T02:55:26.893Z,99811.44
2022-11-04T02:55:53.945Z,99813.00
2022-11-04T02:56:17.778Z,99818.22
2022-11-04T02:56:43.408Z,99815.56
2022-11-04T02:57:09.703Z,99817.56
2022-11-04T02:57:36.670Z,99816.78
2022-11-04T02:58:00.363Z,99814.97
2022-11-04T02:58:25.482Z,99817.56
2022-11-04T02:58:55.857Z,99816.78
2022-11-04T02:59:24.149Z,99812.47
2022-11-04T02:59:52.672Z,99818.50
2022-11-04T03:00:15.467Z,99810.75
2022-11-04T03:00:42.974Z,99808.94
2022-11-04T03:01:08.009Z,99811.63
2022-11-04T03:01:34.665Z,99814.38
2022-11-04T03:01:58.844Z,99812.66
2022-11-04T03:02:28.297Z,99799.97
2022-11-04T03:02:55.478Z,99802.06
2022-11-04T03:03:22.119Z,99813.34
2022-11-04T03:03:49.418Z,99817.75
2022-11-04T03:04:15.302Z,99816.22
2022-11-04T03:04:40.982Z,99814.66
2022-11-04T03:05:06.763Z,99817.22
2022-11-04T03:05:33.924Z,99816.66
2022-11-04T03:05:58.214Z,99819.13
2022-11-04T03:06:24.738Z,99813.22
2022-11-04T03:06:50.005Z,99811.41
2022-11-04T03:07:15.969Z,99811.22
2022-11-04T03:07:41.628Z,99807.69
2022-11-04T03:08:06.691Z,99808.56
2022-11-04T03:08:32.387Z,99805.03
2022-11-04T03:08:56.653Z,99808.38
2022-11-04T03:09:20.846Z,99804.16
2022-11-04T03:09:47.613Z,99803.38
2022-11-04T03:10:16.929Z,99812.84
2022-11-04T03:10:44.118Z,99811.91
2022-11-04T03:11:12.214Z,99804.53
2022-11-04T03:11:35.890Z,99807.22
2022-11-04T03:12:03.177Z,99808.19
2022-11-04T03:12:30.178Z,99810.94
2022-11-04T03:12:56.298Z,99807.50
2022-11-04T03:13:22.544Z,99807.50
2022-11-04T03:13:49.835Z,99807.50
2022-11-04T03:14:16.804Z,99804.75
2022-11-04T03:14:42.903Z,99805.13
2022-11-04T03:15:13.314Z,99801.13
2022-11-04T03:15:39.028Z,99807.13
2022-11-04T03:16:09.031Z,99808.94
2022-11-04T03:16:37.461Z,99799.28
2022-11-04T03:17:04.829Z,99802.72
2022-11-04T03:17:32.033Z,99802.72
2022-11-04T03:18:00.548Z,99801.88
2022-11-04T03:18:30.170Z,99801.00
2022-11-04T03:19:01.810Z,99795.59
2022-11-04T03:19:31.000Z,99802.63
2022-11-04T03:19:56.317Z,99806.03
2022-11-04T03:20:23.586Z,99800.50
2022-11-04T03:20:49.250Z,99802.34
2022-11-04T03:21:13.978Z,99804.88
2022-11-04T03:21:40.143Z,99801.28
2022-11-04T03:22:05.993Z,99800.31
2022-11-04T03:22:31.464Z,99792.69
2022-11-04T03:22:55.714Z,99800.31
2022-11-04T03:23:17.858Z,99804.59
2022-11-04T03:23:40.534Z,99803.84
2022-11-04T03:24:04.499Z,99803.66
2022-11-04T03:24:26.796Z,99802.72
2022-11-04T03:24:49.759Z,99808.06
2022-11-04T03:25:11.507Z,99802.78
2022-11-04T03:25:38.815Z,99800.31
2022-11-04T03:26:09.629Z,99798.41
2022-11-04T03:26:37.166Z,99800.31
2022-11-04T03:27:02.845Z,99804.03
2022-11-04T03:27:31.681Z,99802.50
2022-11-04T03:28:00.938Z,99796.41
2022-11-04T03:28:37.990Z,99804.41
2022-11-04T03:29:10.669Z,99798.97
2022-11-04T03:29:35.358Z,99794.41
2022-11-04T03:30:01.976Z,99799.47
2022-11-04T03:30:25.323Z,99803.00
2022-11-04T03:30:49.450Z,99802.78
2022-11-04T03:31:17.855Z,99804.72
2022-11-04T03:31:46.098Z,99798.88
2022-11-04T03:32:15.608Z,99805.94
2022-11-04T03:32:44.487Z,99799.06
2022-11-04T03:33:13.491Z,99799.94
2022-11-04T03:33:41.303Z,99796.50
2022-11-04T03:34:02.958Z,99789.63
2022-11-04T03:34:25.610Z,99801.56
2022-11-04T03:34:47.656Z,99803.16
2022-11-04T03:35:09.785Z,99786.19
2022-11-04T03:35:31.896Z,99806.59
2022-11-04T03:35:54.594Z,99807.47
2022-11-04T03:36:16.357Z,99803.16
2022-11-04T03:36:38.040Z,99797.28
2022-11-04T03:36:59.840Z,99796.50
2022-11-04T03:37:22.530Z,99804.56
2022-11-04T03:37:44.831Z,99804.50
2022-11-04T03:38:06.538Z,99792.19
2022-11-04T03:38:28.141Z,99792.09
2022-11-04T03:38:52.373Z,99795.44
2022-11-04T03:39:13.915Z,99785.81
2022-11-04T03:39:35.510Z,99804.13
2022-11-04T03:39:57.125Z,99796.28
2022-11-04T03:40:21.948Z,99794.22
2022-11-04T03:40:43.722Z,99797.81
2022-11-04T03:41:14.830Z,99787.91
2022-11-04T03:41:43.760Z,99792.88
2022-11-04T03:42:20.499Z,99796.50
2022-11-04T03:42:49.587Z,99791.16
2022-11-04T03:43:17.420Z,99786.19
2022-11-04T03:43:41.690Z,99794.69
2022-11-04T03:44:03.747Z,99792.88
2022-11-04T03:44:26.857Z,99786.75
2022-11-04T03:44:49.380Z,99798.22
2022-11-04T03:45:11.491Z,99789.44
2022-11-04T03:45:34.449Z,99793.63
2022-11-04T03:45:57.298Z,99797.94
2022-11-04T03:46:19.390Z,99797.00
2022-11-04T03:46:41.262Z,99794.41
2022-11-04T03:47:02.914Z,99792.59
2022-11-04T03:47:27.364Z,99796.13
2022-11-04T03:47:50.683Z,99795.28
2022-11-04T03:48:13.160Z,99792.59
2022-11-04T03:48:35.354Z,99791.66
2022-11-04T03:48:59.161Z,99795.94
2022-11-04T03:49:23.441Z,99795.94
2022-11-04T03:49:46.071Z,99796.88
2022-11-04T03:50:12.097Z,99805.09
2022-11-04T03:50:40.325Z,99798.81
2022-11-04T03:51:03.036Z,99791.16
2022-11-04T03:51:24.583Z,99803.28
2022-11-04T03:51:46.141Z,99799.94
2022-11-04T03:52:07.718Z,99805.00
2022-11-04T03:52:29.434Z,99799.53
2022-11-04T03:52:52.371Z,99797.00
2022-11-04T03:53:17.160Z,99803.16
2022-11-04T03:53:38.995Z,99796.88
2022-11-04T03:54:01.130Z,99800.31
2022-11-04T03:54:23.811Z,99801.28
2022-11-04T03:54:46.583Z,99796.28
2022-11-04T03:55:09.639Z,99800.09
2022-11-04T03:55:44.366Z,99795.53
2022-11-04T03:56:28.488Z,99805.09
2022-11-04T03:57:02.768Z,99804.13
2022-11-04T03:57:37.561Z,99803.28
2022-11-04T03:58:05.823Z,99798.97
2022-11-04T03:58:37.802Z,99804.88
2022-11-04T03:59:18.935Z,99806.81
2022-11-04T04:00:09.111Z,99776.56
2022-11-04T04:00:39.743Z,99789.44
2022-11-04T04:01:14.149Z,99805.09
2022-11-04T04:01:47.618Z,99796.13
2022-11-04T04:02:15.876Z,99810.41
2022-11-04T04:02:47.013Z,99810.41
2022-11-04T04:03:13.475Z,99806.81
2022-11-04T04:03:41.759Z,99809.47
2022-11-04T04:04:11.334Z,99804.13
2022-11-04T04:04:36.892Z,99798.22
2022-11-04T04:05:01.707Z,99796.50
2022-11-04T04:05:28.143Z,99806.97
2022-11-04T04:05:53.878Z,99798.88
2022-11-04T04:06:18.733Z,99798.88
2022-11-04T04:06:43.366Z,99791.81
2022-11-04T04:07:13.530Z,99798.03
2022-11-04T04:07:39.815Z,99793.63
2022-11-04T04:08:12.307Z,99793.03
2022-11-04T04:08:39.461Z,99798.03
2022-11-04T04:09:08.167Z,99792.88
2022-11-04T04:09:38.009Z,99798.03
2022-11-04T04:10:24.866Z,99800.69
2022-11-04T04:10:54.499Z,99798.81
2022-11-04T04:11:21.523Z,99796.13
2022-11-04T04:11:49.304Z,99789.06
2022-11-04T04:12:16.682Z,99795.34
2022-11-04T04:12:41.360Z,99792.88
2022-11-04T04:13:07.674Z,99796.50
2022-11-04T04:13:39.941Z,99794.03
2022-11-04T04:14:06.282Z,99786.97
2022-11-04T04:14:40.157Z,99782.75
2022-11-04T04:15:08.150Z,99789.50
2022-11-04T04:15:34.961Z,99791.25
2022-11-04T04:16:01.086Z,99792.19
2022-11-04T04:16:29.747Z,99791.06
2022-11-04T04:16:56.596Z,99792.88
2022-11-04T04:17:21.265Z,99795.63
2022-11-04T04:17:47.514Z,99765.31
2022-11-04T04:18:13.598Z,99797.34
2022-11-04T04:18:41.245Z,99801.03
2022-11-04T04:19:05.715Z,99793.16
2022-11-04T04:19:28.108Z,99795.59
2022-11-04T04:19:54.684Z,99784.63
2022-11-04T04:20:20.435Z,99793.78
2022-11-04T04:20:47.132Z,99797.41
2022-11-04T04:21:15.353Z,99793.13
2022-11-04T04:21:42.421Z,99791.13
2022-11-04T04:22:10.419Z,99791.28
2022-11-04T04:22:37.170Z,99773.00
2022-11-04T04:23:24.422Z,99793.94
2022-11-04T04:24:08.455Z,99795.78
2022-11-04T04:24:53.795Z,99786.72
2022-11-04T04:25:35.743Z,99796.25
2022-11-04T04:26:21.797Z,99790.84
2022-11-04T04:27:08.090Z,99801.44
2022-11-04T04:27:32.200Z,99797.22
2022-11-04T04:27:56.153Z,99804.09
2022-11-04T04:28:21.251Z,99803.31
2022-11-04T04:28:43.562Z,99802.38
2022-11-04T04:29:06.742Z,99798.00
2022-11-04T04:29:29.720Z,99803.53
2022-11-04T04:29:54.231Z,99801.97
2022-11-04T04:30:17.189Z,99807.13
2022-11-04T04:30:42.002Z,99795.69
2022-11-04T04:31:05.591Z,99803.53
2022-11-04T04:31:48.957Z,99808.75
2022-11-04T04:32:12.586Z,99804.34
2022-11-04T04:32:39.289Z,99807.13
2022-11-04T04:33:07.385Z,99804.28
2022-11-04T04:33:29.130Z,99808.66
2022-11-04T04:33:51.661Z,99812.28
2022-11-04T04:34:13.297Z,99808.59
2022-11-04T04:34:34.903Z,99815.59
2022-11-04T04:35:17.500Z,99804.94
2022-11-04T04:35:43.487Z,99806.00
2022-11-04T04:36:09.209Z,99816.84
2022-11-04T04:36:33.042Z,99808.66
2022-11-04T04:37:01.060Z,99816.75
2022-11-04T04:37:26.574Z,99813.06
2022-11-04T04:37:48.612Z,99815.59
2022-11-04T04:38:38.494Z,99820.56
2022-11-04T04:39:24.012Z,99824.34
2022-11-04T04:40:07.400Z,99819.03
2022-11-04T04:40:49.675Z,99816.34
2022-11-04T04:41:35.903Z,99817.38
2022-11-04T04:42:17.122Z,99817.56
2022-11-04T04:42:58.003Z,99821.03
2022-11-04T04:43:38.246Z,99822.63
2022-11-04T04:44:18.655Z,99809.06
2022-11-04T04:45:01.935Z,99810.34
2022-11-04T04:45:31.711Z,99809.38
2022-11-04T04:45:55.872Z,99817.38
2022-11-04T04:46:20.227Z,99821.88
2022-11-04T04:46:43.387Z,99817.50
2022-11-04T04:47:06.683Z,99814.72
2022-11-04T04:47:33.546Z,99822.91
2022-11-04T04:47:56.169Z,99813.97
2022-11-04T04:48:17.850Z,99809.66
2022-11-04T04:48:39.494Z,99814.13
2022-11-04T04:49:05.343Z,99817.66
2022-11-04T04:49:34.866Z,99810.88
2022-11-04T04:49:58.689Z,99805.78
2022-11-04T04:50:21.675Z,99811.56
2022-11-04T04:50:48.334Z,99807.38
2022-11-04T04:51:10.876Z,99814.31
2022-11-04T04:51:33.459Z,99811.91
2022-11-04T04:51:55.008Z,99808.13
2022-11-04T04:52:16.718Z,99807.44
2022-11-04T04:52:42.338Z,99804.19
2022-11-04T04:53:04.272Z,99815.63
2022-11-04T04:53:25.871Z,99810.19
2022-11-04T04:53:47.476Z,99817.31
2022-11-04T04:54:10.188Z,99811.06
2022-11-04T04:54:31.779Z,99800.66
2022-11-04T04:54:53.390Z,99811.06
2022-11-04T04:55:16.439Z,99817.16
2022-11-04T04:55:41.786Z,99811.06
2022-11-04T04:56:03.610Z,99812.09
2022-11-04T04:56:25.170Z,99817.31
2022-11-04T04:56:46.745Z,99810.38
2022-11-04T04:57:08.319Z,99823.72
2022-11-04T04:57:30.871Z,99816.72
2022-11-04T04:57:52.435Z,99808.94
2022-11-04T04:58:14.049Z,99816.66
2022-11-04T04:58:35.615Z,99818.66
2022-11-04T04:58:58.348Z,99806.53
2022-11-04T04:59:19.941Z,99809.19
2022-11-04T04:59:41.626Z,99819.66
2022-11-04T05:00:04.888Z,99816.94
2022-11-04T05:00:27.693Z,99810.91
2022-11-04T05:00:49.396Z,99817.94
2022-11-04T05:01:11.270Z,99815.44
2022-11-04T05:01:34.393Z,99818.81
2022-11-04T05:01:57.178Z,99815.19
2022-11-04T05:02:18.945Z,99817.88
2022-11-04T05:02:40.707Z,99811.59
2022-11-04T05:03:03.403Z,99808.94
2022-11-04T05:03:25.137Z,99814.44
2022-11-04T05:03:46.735Z,99809.19
2022-11-04T05:04:08.301Z,99810.06
2022-11-04T05:04:31.035Z,99810.06
2022-11-04T05:04:52.595Z,99807.38
2022-11-04T05:05:41.806Z,99806.44
2022-11-04T05:06:03.515Z,99802.06
2022-11-04T05:06:25.113Z,99808.13
2022-11-04T05:06:46.696Z,99811.78
2022-11-04T05:07:09.868Z,99810.91
2022-11-04T05:07:32.463Z,99813.31
2022-11-04T05:07:53.986Z,99797.59
2022-11-04T05:08:15.551Z,99811.78
2022-11-04T05:08:37.151Z,99800.13
2022-11-04T05:08:59.676Z,99805.41
2022-11-04T05:09:21.374Z,99812.72
2022-11-04T05:09:42.942Z,99807.44